Terminal Aerodrome Forecast
Issued by NWS Mt. Holly, NJ

Home | Current Version | Previous Version | Text Only | Print | Product List | Glossary On
Versions: 1 2 3 4 5 6 7 8 9 10 11 12 13
000
FTUS41 KPHI 290539
TAFTTN
TAF
KTTN 290539Z 2906/3006 20005KT P6SM SKC
     FM291200 23006KT P6SM SKC
     FM291800 22008KT P6SM BKN200
     FM292200 19004KT P6SM SCT050 OVC200
     FM300100 19003KT P6SM -SHRA OVC040
      TEMPO 3004/3006 4SM SHRA BKN020=

USA.gov is the U.S. government's official web portal to all federal, state and local government web resources and services.